createdAt,value
2023-04-25T05:03:22.105Z,0.46
2023-04-25T05:04:23.073Z,1.32
2023-04-25T05:05:22.969Z,1.25
2023-04-25T05:06:21.965Z,1.04
2023-04-25T05:07:21.956Z,1.04
2023-04-25T05:08:22.935Z,1.10
2023-04-25T05:09:21.951Z,1.21
2023-04-25T05:10:22.934Z,1.01
2023-04-25T05:11:22.935Z,1.07
2023-04-25T05:12:21.913Z,1.12
2023-04-25T05:13:21.902Z,1.05
2023-04-25T05:14:21.909Z,1.16
2023-04-25T05:15:21.892Z,1.14
2023-04-25T05:16:22.938Z,0.93
2023-04-25T05:17:21.960Z,1.17
2023-04-25T05:18:23.651Z,1.00
2023-04-25T05:19:21.884Z,0.85
2023-04-25T05:20:22.881Z,1.08
2023-04-25T05:21:22.872Z,1.14
2023-04-25T05:22:22.902Z,1.12
2023-04-25T05:23:22.116Z,1.04
2023-04-25T05:24:22.940Z,1.11
2023-04-25T05:25:22.989Z,0.90
2023-04-25T05:26:22.045Z,0.92
2023-04-25T05:27:22.041Z,1.17
2023-04-25T05:28:23.101Z,1.15
2023-04-25T05:29:23.124Z,1.17
2023-04-25T05:30:22.129Z,1.09
2023-04-25T05:31:22.183Z,1.39
2023-04-25T05:32:23.293Z,1.02
2023-04-25T05:33:23.224Z,1.38
2023-04-25T05:34:23.253Z,1.57
2023-04-25T05:35:22.405Z,1.20
2023-04-25T05:36:23.329Z,1.30
2023-04-25T05:37:22.372Z,0.98
2023-04-25T05:38:22.397Z,1.25
2023-04-25T05:39:22.446Z,1.44
2023-04-25T05:40:22.484Z,1.45
2023-04-25T05:41:23.522Z,1.79
2023-04-25T05:42:22.557Z,2.30
2023-04-25T05:43:23.560Z,2.30
2023-04-25T05:44:22.601Z,1.62
2023-04-25T05:45:23.592Z,2.05
2023-04-25T05:46:23.662Z,1.59
2023-04-25T05:47:23.716Z,1.75
2023-04-25T05:48:23.652Z,2.03
2023-04-25T05:49:23.645Z,1.42
2023-04-25T05:50:22.671Z,1.96
2023-04-25T05:51:22.761Z,2.08
2023-04-25T05:52:22.690Z,1.89
2023-04-25T05:53:23.713Z,1.92
2023-04-25T05:54:23.747Z,1.75
2023-04-25T05:55:23.766Z,1.74
2023-04-25T05:56:22.748Z,1.82
2023-04-25T05:57:23.783Z,2.10
2023-04-25T05:58:22.794Z,2.15
2023-04-25T05:59:23.817Z,2.05
2023-04-25T06:00:22.864Z,2.09
2023-04-25T06:01:22.996Z,2.74
2023-04-25T06:02:23.166Z,4.05
2023-04-25T06:03:24.189Z,3.94
2023-04-25T06:04:23.130Z,3.20
2023-04-25T06:05:24.068Z,3.66
2023-04-25T06:06:23.015Z,3.92
2023-04-25T06:07:24.064Z,4.81
2023-04-25T06:08:24.082Z,4.67
2023-04-25T06:09:24.182Z,5.04
2023-04-25T06:10:23.164Z,4.05
2023-04-25T06:11:24.178Z,5.08
2023-04-25T06:12:24.180Z,4.52
2023-04-25T06:13:24.231Z,4.73
2023-04-25T06:14:24.236Z,4.15
2023-04-25T06:15:28.560Z,4.30
2023-04-25T06:16:24.311Z,5.17
2023-04-25T06:17:23.266Z,3.66
2023-04-25T06:18:24.254Z,4.56
2023-04-25T06:19:24.229Z,4.15
2023-04-25T06:20:23.228Z,4.11
2023-04-25T06:21:24.247Z,3.97
2023-04-25T06:22:24.219Z,4.30
2023-04-25T06:23:24.223Z,4.39
2023-04-25T06:24:23.181Z,4.19
2023-04-25T06:25:23.180Z,3.56
2023-04-25T06:26:24.167Z,4.20
2023-04-25T06:27:23.181Z,3.59
2023-04-25T06:28:24.170Z,3.65
2023-04-25T06:29:23.146Z,3.31
2023-04-25T06:30:24.149Z,3.23
2023-04-25T06:31:24.206Z,3.15
2023-04-25T06:32:24.213Z,3.18
2023-04-25T06:33:24.243Z,3.09
2023-04-25T06:34:23.288Z,3.00
2023-04-25T06:35:24.340Z,2.94
2023-04-25T06:36:24.380Z,3.47
2023-04-25T06:37:23.415Z,3.71
2023-04-25T06:38:24.437Z,3.55
2023-04-25T06:39:24.476Z,3.53
2023-04-25T06:40:24.451Z,3.25
2023-04-25T06:41:24.456Z,3.33
2023-04-25T06:42:23.473Z,3.01
2023-04-25T06:43:24.487Z,3.09
2023-04-25T06:44:24.539Z,3.10
2023-04-25T06:45:24.554Z,3.23
2023-04-25T06:46:23.729Z,2.99
2023-04-25T06:47:23.709Z,3.11
2023-04-25T06:48:24.687Z,3.66
2023-04-25T06:49:23.726Z,3.32
2023-04-25T06:50:24.763Z,3.06
2023-04-25T06:51:24.499Z,3.67
2023-04-25T06:52:24.037Z,3.20
2023-04-25T06:53:24.819Z,3.69
2023-04-25T06:54:23.846Z,4.00
2023-04-25T06:55:23.897Z,3.70
2023-04-25T06:56:24.927Z,3.80
2023-04-25T06:57:25.033Z,3.27
2023-04-25T06:58:24.025Z,3.47
2023-04-25T06:59:25.055Z,4.31
2023-04-25T07:00:25.072Z,5.20
2023-04-25T07:01:24.176Z,4.61
2023-04-25T07:02:25.263Z,4.47
2023-04-25T07:03:25.439Z,4.35
2023-04-25T07:04:25.350Z,4.90
2023-04-25T07:05:24.220Z,5.11
2023-04-25T07:06:24.272Z,5.86
2023-04-25T07:07:24.302Z,4.94
2023-04-25T07:08:25.325Z,5.42
2023-04-25T07:09:25.398Z,4.87
2023-04-25T07:10:25.424Z,4.31
2023-04-25T07:11:25.455Z,4.89
2023-04-25T07:12:25.500Z,5.74
2023-04-25T07:13:24.499Z,4.92
2023-04-25T07:14:25.530Z,4.41
2023-04-25T07:15:25.568Z,4.83
2023-04-25T07:16:25.653Z,4.90
2023-04-25T07:17:25.707Z,4.70
2023-04-25T07:18:25.644Z,5.11
2023-04-25T07:19:25.680Z,4.56
2023-04-25T07:20:25.711Z,4.71
2023-04-25T07:21:25.694Z,4.69
2023-04-25T07:22:25.695Z,4.47
2023-04-25T07:23:24.722Z,5.06
2023-04-25T07:24:25.749Z,4.38
2023-04-25T07:25:24.777Z,4.63
2023-04-25T07:26:25.810Z,5.00
2023-04-25T07:27:24.790Z,4.11
2023-04-25T07:28:25.822Z,4.74
2023-04-25T07:29:25.821Z,4.17
2023-04-25T07:30:25.849Z,4.23
2023-04-25T07:31:25.873Z,4.44
2023-04-25T07:32:26.138Z,4.83
2023-04-25T07:33:24.930Z,4.63
2023-04-25T07:34:25.940Z,4.62
2023-04-25T07:35:24.979Z,4.58
2023-04-25T07:36:26.028Z,4.42
2023-04-25T07:37:26.077Z,4.59
2023-04-25T07:38:26.121Z,5.02
2023-04-25T07:39:25.160Z,4.58
2023-04-25T07:40:26.207Z,4.28
2023-04-25T07:41:26.274Z,4.23
2023-04-25T07:42:26.302Z,4.55
2023-04-25T07:43:26.326Z,4.44
2023-04-25T07:44:25.393Z,4.81
2023-04-25T07:45:26.395Z,4.42
2023-04-25T07:46:26.576Z,3.93
2023-04-25T07:47:26.651Z,4.43
2023-04-25T07:48:26.480Z,4.98
2023-04-25T07:49:26.526Z,4.66
2023-04-25T07:50:26.548Z,5.65
2023-04-25T07:51:25.596Z,4.15
2023-04-25T07:52:27.061Z,3.75
2023-04-25T07:53:26.653Z,4.29
2023-04-25T07:54:26.705Z,5.01
2023-04-25T07:55:26.732Z,4.34
2023-04-25T07:56:25.784Z,5.14
2023-04-25T07:57:25.829Z,4.63
2023-04-25T07:58:26.897Z,4.73
2023-04-25T07:59:27.434Z,4.94
2023-04-25T08:00:25.916Z,4.53
2023-04-25T08:01:26.898Z,4.80
2023-04-25T08:02:25.932Z,4.36
2023-04-25T08:03:27.088Z,4.74
2023-04-25T08:04:27.127Z,4.23
2023-04-25T08:05:26.980Z,4.24
2023-04-25T08:06:27.056Z,4.93
2023-04-25T08:07:26.860Z,4.23
2023-04-25T08:08:25.850Z,3.91
2023-04-25T08:09:25.851Z,4.51
2023-04-25T08:10:25.825Z,4.41
2023-04-25T08:11:25.819Z,4.73
2023-04-25T08:12:26.825Z,4.01
2023-04-25T08:13:26.808Z,4.63
2023-04-25T08:14:25.932Z,4.67
2023-04-25T08:15:25.790Z,4.34
2023-04-25T08:16:26.821Z,4.03
2023-04-25T08:17:26.784Z,4.11
2023-04-25T08:18:25.815Z,4.28
2023-04-25T08:19:25.761Z,4.60
2023-04-25T08:20:26.768Z,4.26
2023-04-25T08:21:26.743Z,3.79
2023-04-25T08:22:26.759Z,4.45
2023-04-25T08:23:26.738Z,4.07
2023-04-25T08:24:25.738Z,4.22
2023-04-25T08:25:25.724Z,5.04
2023-04-25T08:26:26.731Z,3.79
2023-04-25T08:27:26.749Z,3.76
2023-04-25T08:28:25.702Z,3.90
2023-04-25T08:29:26.716Z,4.90
2023-04-25T08:30:26.710Z,4.05
2023-04-25T08:31:25.742Z,4.31
2023-04-25T08:32:27.211Z,4.39
2023-04-25T08:33:26.696Z,4.56
2023-04-25T08:34:26.672Z,4.07
2023-04-25T08:35:25.661Z,3.44
2023-04-25T08:36:38.526Z,3.72
2023-04-25T08:37:26.666Z,4.45
2023-04-25T08:38:26.645Z,4.03
2023-04-25T08:39:26.619Z,3.45
2023-04-25T08:40:26.615Z,3.53
2023-04-25T08:41:25.604Z,3.47
2023-04-25T08:42:27.061Z,4.05
2023-04-25T08:43:25.598Z,3.77
2023-04-25T08:44:26.607Z,4.18
2023-04-25T08:45:25.595Z,4.71
2023-04-25T08:46:25.632Z,4.08
2023-04-25T08:47:25.641Z,3.44
2023-04-25T08:48:26.556Z,4.08
2023-04-25T08:49:26.553Z,4.11
2023-04-25T08:50:26.542Z,4.14
2023-04-25T08:51:26.558Z,4.44
2023-04-25T08:52:26.538Z,4.19
2023-04-25T08:53:26.163Z,4.88
2023-04-25T08:54:35.561Z,3.77
2023-04-25T08:55:26.507Z,4.73
2023-04-25T08:56:25.505Z,5.20
2023-04-25T08:57:25.583Z,4.61
2023-04-25T08:58:25.507Z,3.77
2023-04-25T08:59:26.505Z,3.79
2023-04-25T09:00:25.482Z,3.89
2023-04-25T09:01:25.569Z,3.52
2023-04-25T09:02:25.831Z,4.18
2023-04-25T09:03:26.759Z,3.59
2023-04-25T09:04:26.516Z,3.24
2023-04-25T09:05:25.443Z,3.87
2023-04-25T09:06:26.448Z,3.74
2023-04-25T09:07:26.473Z,3.85
2023-04-25T09:08:26.435Z,3.02
2023-04-25T09:09:25.450Z,3.72
2023-04-25T09:10:26.480Z,3.61
2023-04-25T09:11:25.524Z,3.00
2023-04-25T09:12:26.568Z,2.91
2023-04-25T09:13:26.566Z,2.82
2023-04-25T09:14:25.586Z,2.93
2023-04-25T09:15:26.613Z,3.06
2023-04-25T09:16:26.754Z,3.51
2023-04-25T09:17:26.845Z,2.80
2023-04-25T09:18:29.947Z,3.12
2023-04-25T09:19:38.994Z,3.01
2023-04-25T09:20:26.753Z,3.35
2023-04-25T09:21:26.727Z,2.96
2023-04-25T09:22:26.735Z,2.53
2023-04-25T09:23:26.737Z,3.06
2023-04-25T09:24:26.693Z,2.62
2023-04-25T09:25:26.718Z,2.40
2023-04-25T09:26:25.689Z,2.73
2023-04-25T09:27:25.738Z,2.68
2023-04-25T09:28:26.060Z,2.94
2023-04-25T09:29:26.666Z,2.98
2023-04-25T09:30:26.683Z,2.95
2023-04-25T09:31:26.690Z,3.21
2023-04-25T09:32:25.732Z,2.55
2023-04-25T09:33:25.630Z,2.93
2023-04-25T09:34:25.667Z,2.53
2023-04-25T09:35:26.631Z,3.10
2023-04-25T09:36:26.613Z,2.63
2023-04-25T09:37:26.620Z,3.21
2023-04-25T09:38:26.597Z,2.65
2023-04-25T09:39:26.602Z,2.97
2023-04-25T09:40:26.601Z,3.31
2023-04-25T09:41:25.589Z,2.94
2023-04-25T09:42:25.572Z,2.40
2023-04-25T09:43:25.575Z,2.93
2023-04-25T09:44:25.610Z,2.45
2023-04-25T09:45:25.568Z,2.97
2023-04-25T09:46:26.637Z,2.93
2023-04-25T09:47:26.589Z,3.52
2023-04-25T09:48:26.616Z,2.90
2023-04-25T09:49:26.091Z,2.69
2023-04-25T09:50:25.607Z,2.31
2023-04-25T09:51:26.518Z,3.43
2023-04-25T09:52:26.628Z,3.10
2023-04-25T09:53:26.620Z,3.02
2023-04-25T09:54:26.502Z,2.91
2023-04-25T09:55:25.495Z,3.38
2023-04-25T09:56:25.510Z,2.80
2023-04-25T09:57:26.493Z,2.67
2023-04-25T09:58:26.467Z,2.97
2023-04-25T09:59:25.499Z,3.26
2023-04-25T10:00:26.450Z,2.97
2023-04-25T10:01:25.508Z,2.70
2023-04-25T10:02:26.561Z,3.50
2023-04-25T10:03:25.674Z,3.10
2023-04-25T10:04:26.742Z,2.72
2023-04-25T10:05:25.549Z,2.75
2023-04-25T10:06:26.601Z,2.76
2023-04-25T10:07:25.632Z,2.63
2023-04-25T10:08:25.684Z,3.07
2023-04-25T10:09:25.706Z,3.02
2023-04-25T10:10:25.759Z,3.25
2023-04-25T10:11:25.796Z,2.57
2023-04-25T10:12:26.844Z,3.22
2023-04-25T10:13:26.873Z,2.73
2023-04-25T10:14:25.919Z,3.13
2023-04-25T10:15:26.085Z,3.00
2023-04-25T10:16:26.035Z,3.26
2023-04-25T10:17:27.077Z,3.09
2023-04-25T10:18:26.089Z,2.24
2023-04-25T10:19:26.146Z,3.26
2023-04-25T10:20:26.179Z,2.93
2023-04-25T10:21:27.212Z,2.41
2023-04-25T10:22:27.333Z,2.97
2023-04-25T10:23:27.316Z,3.15
2023-04-25T10:24:27.345Z,2.72
2023-04-25T10:25:26.403Z,3.00
2023-04-25T10:26:29.042Z,2.51
2023-04-25T10:27:27.435Z,3.03
2023-04-25T10:28:27.443Z,2.97
2023-04-25T10:29:27.443Z,3.38
2023-04-25T10:30:27.434Z,3.30
2023-04-25T10:31:27.590Z,3.14
2023-04-25T10:32:26.416Z,2.91
2023-04-25T10:33:27.408Z,2.51
2023-04-25T10:34:27.395Z,3.02
2023-04-25T10:35:27.378Z,2.14
2023-04-25T10:36:27.375Z,3.13
2023-04-25T10:37:27.395Z,2.69
2023-04-25T10:38:27.428Z,2.97
2023-04-25T10:39:27.342Z,2.57
2023-04-25T10:40:26.388Z,2.86
2023-04-25T10:41:27.340Z,2.62
2023-04-25T10:42:27.347Z,2.93
2023-04-25T10:43:27.629Z,2.37
2023-04-25T10:44:26.329Z,2.84
2023-04-25T10:45:26.316Z,2.63
2023-04-25T10:46:26.358Z,2.77
2023-04-25T10:47:27.335Z,2.53
2023-04-25T10:48:27.381Z,2.87
2023-04-25T10:49:27.287Z,2.40
2023-04-25T10:50:26.266Z,2.85
2023-04-25T10:51:27.282Z,3.01
2023-04-25T10:52:27.308Z,2.90
2023-04-25T10:53:26.271Z,2.74
2023-04-25T10:54:26.272Z,2.59
2023-04-25T10:55:27.290Z,2.90
2023-04-25T10:56:26.233Z,2.64
2023-04-25T10:57:26.222Z,2.75
2023-04-25T10:58:27.215Z,2.64
2023-04-25T10:59:27.214Z,2.45
2023-04-25T11:00:33.948Z,2.42
2023-04-25T11:01:27.199Z,2.56
2023-04-25T11:02:27.291Z,2.56
2023-04-25T11:03:26.356Z,2.57
2023-04-25T11:04:27.608Z,3.39
2023-04-25T11:05:27.167Z,2.73
2023-04-25T11:06:26.167Z,2.74
2023-04-25T11:07:27.170Z,2.74
2023-04-25T11:08:27.144Z,3.12
2023-04-25T11:09:27.139Z,2.70
2023-04-25T11:10:27.188Z,2.54
2023-04-25T11:11:27.120Z,2.24
2023-04-25T11:12:27.142Z,3.03
2023-04-25T11:13:26.125Z,2.72
2023-04-25T11:14:27.205Z,2.46
2023-04-25T11:15:27.094Z,2.32
2023-04-25T11:16:28.105Z,2.42
2023-04-25T11:17:26.335Z,2.95
2023-04-25T11:18:26.415Z,2.48
2023-04-25T11:19:27.393Z,2.65
2023-04-25T11:20:26.392Z,2.70
2023-04-25T11:21:26.419Z,2.26
2023-04-25T11:22:27.491Z,2.77
2023-04-25T11:23:27.500Z,2.35
2023-04-25T11:24:26.525Z,2.75
2023-04-25T11:25:27.537Z,2.32
2023-04-25T11:26:27.612Z,2.30
2023-04-25T11:27:27.612Z,2.80
2023-04-25T11:28:27.921Z,2.33
2023-04-25T11:29:27.656Z,2.83
2023-04-25T11:30:26.695Z,3.38
2023-04-25T11:31:27.777Z,3.13
2023-04-25T11:32:27.957Z,2.46
2023-04-25T11:33:27.859Z,2.50
2023-04-25T11:34:26.817Z,2.56
2023-04-25T11:35:27.876Z,2.43
2023-04-25T11:36:27.935Z,2.66
2023-04-25T11:37:27.925Z,2.27
2023-04-25T11:38:29.431Z,3.18
2023-04-25T11:39:28.092Z,2.62
2023-04-25T11:40:27.122Z,2.79
2023-04-25T11:41:27.136Z,2.29
2023-04-25T11:42:27.326Z,1.90
2023-04-25T11:43:27.225Z,2.26
2023-04-25T11:44:27.261Z,2.31
2023-04-25T11:45:28.324Z,3.36
2023-04-25T11:46:28.469Z,2.14
2023-04-25T11:47:27.454Z,1.47
2023-04-25T11:48:28.495Z,2.04
2023-04-25T11:49:28.257Z,1.82
2023-04-25T11:50:28.564Z,1.73
2023-04-25T11:51:27.611Z,1.95
2023-04-25T11:52:27.661Z,1.68
2023-04-25T11:53:28.749Z,1.77
2023-04-25T11:54:28.769Z,1.45
2023-04-25T11:55:27.824Z,1.58
2023-04-25T11:56:27.863Z,1.61
2023-04-25T11:57:28.931Z,1.39
2023-04-25T11:58:28.940Z,1.48
2023-04-25T11:59:28.670Z,1.47
2023-04-25T12:00:29.008Z,1.14
2023-04-25T12:01:30.084Z,1.74
2023-04-25T12:02:29.106Z,1.12
2023-04-25T12:03:29.231Z,1.08
2023-04-25T12:04:29.281Z,1.69
2023-04-25T12:05:32.029Z,1.61
2023-04-25T12:06:28.065Z,1.26
2023-04-25T12:07:27.999Z,2.08
2023-04-25T12:08:28.981Z,1.61
2023-04-25T12:09:27.975Z,1.34
2023-04-25T12:10:28.976Z,1.40
2023-04-25T12:11:28.957Z,0.94
2023-04-25T12:12:28.968Z,1.15
2023-04-25T12:13:27.992Z,1.51
2023-04-25T12:14:28.155Z,1.01
2023-04-25T12:15:27.947Z,1.52
2023-04-25T12:16:28.947Z,1.79
2023-04-25T12:17:28.929Z,1.06
2023-04-25T12:18:29.191Z,1.54
2023-04-25T12:19:28.907Z,1.54
2023-04-25T12:20:28.917Z,1.31
2023-04-25T12:21:28.914Z,1.54
2023-04-25T12:22:27.939Z,1.19
2023-04-25T12:23:29.192Z,1.43
2023-04-25T12:24:28.251Z,1.13
2023-04-25T12:25:29.024Z,1.65
2023-04-25T12:26:28.042Z,1.29
2023-04-25T12:27:29.712Z,1.24
2023-04-25T12:28:28.089Z,0.97
2023-04-25T12:29:34.634Z,1.55
2023-04-25T12:30:29.156Z,1.67
2023-04-25T12:31:29.122Z,1.54
2023-04-25T12:32:29.115Z,1.50
2023-04-25T12:33:29.070Z,1.55
2023-04-25T12:34:28.090Z,1.71
2023-04-25T12:35:28.066Z,1.62
2023-04-25T12:36:29.122Z,1.36
2023-04-25T12:37:28.052Z,1.21
2023-04-25T12:38:29.039Z,1.16
2023-04-25T12:39:28.079Z,0.97
2023-04-25T12:40:28.039Z,1.23
2023-04-25T12:41:28.029Z,1.29
2023-04-25T12:42:29.046Z,1.81
2023-04-25T12:43:28.061Z,1.26
2023-04-25T12:44:29.005Z,1.18
2023-04-25T12:45:28.049Z,1.45
2023-04-25T12:46:28.063Z,1.50
2023-04-25T12:47:29.097Z,1.24
2023-04-25T12:48:28.061Z,1.44
2023-04-25T12:49:28.092Z,1.19
2023-04-25T12:50:28.128Z,1.63
2023-04-25T12:51:28.138Z,1.49
2023-04-25T12:52:29.147Z,1.22
2023-04-25T12:53:29.175Z,1.40
2023-04-25T12:54:28.256Z,1.48
2023-04-25T12:55:29.284Z,1.28
2023-04-25T12:56:29.336Z,1.53
2023-04-25T12:57:28.322Z,1.42
2023-04-25T12:58:29.375Z,1.33
2023-04-25T12:59:28.403Z,1.32
2023-04-25T13:00:29.460Z,1.38
2023-04-25T13:01:29.509Z,2.25
2023-04-25T13:02:28.602Z,1.21
2023-04-25T13:03:29.726Z,1.51
2023-04-25T13:04:29.747Z,1.36
2023-04-25T13:05:28.580Z,1.52
2023-04-25T13:06:29.640Z,1.55
2023-04-25T13:07:28.653Z,1.42
2023-04-25T13:08:29.680Z,1.44
2023-04-25T13:09:28.890Z,1.58
2023-04-25T13:10:28.761Z,1.67
2023-04-25T13:12:28.751Z,1.73
2023-04-25T13:13:29.737Z,1.58
2023-04-25T13:14:29.727Z,1.44
2023-04-25T13:15:29.729Z,1.25
2023-04-25T13:16:28.850Z,1.92
2023-04-25T13:17:29.081Z,1.45
2023-04-25T13:18:28.692Z,1.56
2023-04-25T13:19:28.714Z,1.53
2023-04-25T13:20:29.733Z,1.29
2023-04-25T13:21:29.688Z,1.67
2023-04-25T13:22:28.705Z,1.64
2023-04-25T13:23:28.661Z,1.64
2023-04-25T13:24:29.655Z,1.30
2023-04-25T13:25:29.649Z,1.97
2023-04-25T13:26:28.646Z,2.03
2023-04-25T13:27:28.646Z,1.86
2023-04-25T13:28:28.631Z,1.47
2023-04-25T13:29:29.629Z,1.26
2023-04-25T13:30:28.612Z,1.34
2023-04-25T13:31:29.628Z,1.65
2023-04-25T13:32:29.632Z,1.68
2023-04-25T13:33:29.622Z,1.97
2023-04-25T13:34:28.603Z,1.32
2023-04-25T13:35:28.590Z,1.74
2023-04-25T13:36:29.576Z,1.71
2023-04-25T13:37:29.561Z,1.48
2023-04-25T13:38:29.573Z,1.68
2023-04-25T13:39:29.564Z,1.76
2023-04-25T13:40:29.559Z,1.71
2023-04-25T13:41:28.533Z,1.32
2023-04-25T13:42:28.546Z,1.51
2023-04-25T13:43:29.537Z,1.66
2023-04-25T13:44:28.535Z,1.91
2023-04-25T13:45:31.549Z,1.37
2023-04-25T13:46:45.569Z,1.56
2023-04-25T13:47:29.556Z,1.57
2023-04-25T13:48:29.511Z,1.50
2023-04-25T13:49:29.515Z,1.42
2023-04-25T13:50:29.490Z,1.75
2023-04-25T13:51:31.519Z,1.52
2023-04-25T13:52:29.470Z,1.56
2023-04-25T13:53:28.460Z,1.60
2023-04-25T13:54:29.460Z,1.49
2023-04-25T13:55:28.441Z,1.68
2023-04-25T13:56:29.435Z,1.75
2023-04-25T13:57:28.454Z,1.40
2023-04-25T13:58:29.432Z,1.57
2023-04-25T13:59:28.426Z,1.60
2023-04-25T14:00:28.408Z,1.36
2023-04-25T14:01:28.430Z,1.49
2023-04-25T14:02:29.502Z,1.68
2023-04-25T14:03:29.516Z,1.79
2023-04-25T14:04:29.435Z,1.48
2023-04-25T14:05:28.398Z,1.69
2023-04-25T14:06:29.365Z,1.83
2023-04-25T14:07:28.365Z,1.25
2023-04-25T14:08:29.338Z,1.81
2023-04-25T14:09:29.352Z,1.47
2023-04-25T14:10:28.336Z,1.70
2023-04-25T14:11:28.329Z,1.72
2023-04-25T14:12:29.301Z,1.55
2023-04-25T14:13:29.308Z,1.74
2023-04-25T14:14:28.310Z,1.80
2023-04-25T14:15:28.403Z,1.54
2023-04-25T14:16:29.407Z,1.80
2023-04-25T14:17:28.333Z,1.43
2023-04-25T14:18:29.261Z,1.78
2023-04-25T14:19:29.266Z,1.70
2023-04-25T14:20:29.252Z,1.96
2023-04-25T14:21:29.291Z,1.38
2023-04-25T14:22:28.244Z,1.52
2023-04-25T14:23:28.235Z,1.96
2023-04-25T14:24:29.250Z,1.97
2023-04-25T14:25:29.223Z,1.65
2023-04-25T14:26:29.226Z,1.81
2023-04-25T14:27:29.267Z,1.50
2023-04-25T14:28:29.269Z,1.53
2023-04-25T14:29:28.298Z,1.46
2023-04-25T14:30:29.327Z,1.24
2023-04-25T14:31:28.394Z,1.88
2023-04-25T14:32:29.429Z,1.67
2023-04-25T14:33:28.443Z,1.45
2023-04-25T14:34:29.514Z,2.15
2023-04-25T14:35:29.556Z,1.68
2023-04-25T14:36:28.590Z,1.48
2023-04-25T14:37:29.774Z,1.41
2023-04-25T14:38:28.662Z,1.53
2023-04-25T14:39:29.735Z,1.65
2023-04-25T14:40:29.750Z,1.82
2023-04-25T14:41:28.766Z,1.44
2023-04-25T14:42:28.783Z,1.64
2023-04-25T14:43:29.822Z,1.77
2023-04-25T14:44:28.822Z,1.40
2023-04-25T14:45:28.857Z,1.59
2023-04-25T14:46:28.883Z,1.36
2023-04-25T14:47:28.939Z,1.86
2023-04-25T14:48:28.944Z,1.56
2023-04-25T14:49:29.927Z,1.40
2023-04-25T14:50:29.942Z,1.40
2023-04-25T14:51:29.940Z,1.62
2023-04-25T14:52:29.972Z,1.56
2023-04-25T14:53:28.989Z,1.62
2023-04-25T14:54:30.013Z,1.25
2023-04-25T14:55:29.007Z,1.36
2023-04-25T14:56:30.012Z,1.36
2023-04-25T14:57:30.016Z,1.78
2023-04-25T14:58:30.020Z,1.66
2023-04-25T14:59:30.045Z,1.35
2023-04-25T15:00:30.182Z,1.43
2023-04-25T15:01:29.157Z,1.73
2023-04-25T15:02:30.182Z,1.41
2023-04-25T15:03:30.426Z,1.44
2023-04-25T15:04:30.379Z,1.14
2023-04-25T15:05:29.271Z,1.79
2023-04-25T15:06:29.264Z,1.85
2023-04-25T15:07:29.295Z,1.33
2023-04-25T15:08:29.338Z,1.59
2023-04-25T15:09:30.380Z,1.26
2023-04-25T15:10:30.404Z,1.70
2023-04-25T15:11:30.454Z,1.40
2023-04-25T15:12:30.503Z,1.37
2023-04-25T15:13:30.538Z,1.41
2023-04-25T15:14:30.578Z,1.31
2023-04-25T15:15:29.637Z,1.14
2023-04-25T15:16:30.771Z,1.40
2023-04-25T15:17:30.733Z,1.44
2023-04-25T15:18:29.820Z,1.79
2023-04-25T15:19:30.808Z,1.13
2023-04-25T15:20:30.899Z,1.07
2023-04-25T15:21:29.917Z,1.46
2023-04-25T15:22:29.957Z,1.65
2023-04-25T15:23:30.138Z,1.39
2023-04-25T15:24:30.054Z,2.02
2023-04-25T15:25:30.126Z,1.61
2023-04-25T15:26:31.137Z,1.21
2023-04-25T15:27:31.175Z,1.71
2023-04-25T15:28:30.235Z,1.55
2023-04-25T15:29:31.283Z,1.33
